Time;durP1;ratioP1;P1;durP2;ratioP2;P2;SDS_P1;SDS_P2;PMS_P1;PMS_P2;Temp;Humidity;BMP_temperature;BMP_pressure;BME280_temperature;BME280_humidity;BME280_pressure;Samples;Min_cycle;Max_cycle;Signal;HPM_P1;HPM_P2
2022/05/28 00:01:35;;;;;;;12.55;2.30;;;11.80;99.90;;;;;;5070287;28;20124;-61
2022/05/28 00:04:04;;;;;;;9.57;2.00;;;11.80;99.90;;;;;;5068530;28;20519;-61
2022/05/28 00:06:31;;;;;;;10.75;2.33;;;11.80;99.90;;;;;;5070873;28;20673;-61
2022/05/28 00:08:58;;;;;;;7.60;1.75;;;11.80;99.90;;;;;;5072905;28;20051;-61
2022/05/28 00:11:28;;;;;;;9.73;2.08;;;11.90;99.90;;;;;;5047771;28;20048;-61
2022/05/28 00:13:53;;;;;;;11.10;2.40;;;11.80;99.90;;;;;;5073724;28;20044;-61
2022/05/28 00:16:20;;;;;;;8.30;2.33;;;11.90;99.90;;;;;;5070113;28;20040;-61
2022/05/28 00:18:47;;;;;;;10.98;2.20;;;11.90;99.90;;;;;;5068703;28;20083;-61
2022/05/28 00:21:14;;;;;;;10.20;3.08;;;11.90;99.90;;;;;;5070097;28;20095;-61
2022/05/28 00:23:40;;;;;;;7.82;1.83;;;11.90;99.90;;;;;;5070849;28;20128;-61
2022/05/28 00:26:06;;;;;;;8.13;2.00;;;11.90;99.90;;;;;;5072851;28;20045;-61
2022/05/28 00:28:33;;;;;;;12.70;2.22;;;11.80;99.90;;;;;;5063817;28;20051;-61
2022/05/28 00:31:00;;;;;;;8.40;1.95;;;11.70;99.90;;;;;;5070431;28;20070;-61
2022/05/28 00:33:26;;;;;;;7.70;2.05;;;11.60;99.90;;;;;;5072809;28;20093;-60
2022/05/28 00:35:52;;;;;;;5.88;1.80;;;11.30;99.90;;;;;;5065234;28;20128;-60
2022/05/28 00:38:18;;;;;;;6.72;1.55;;;11.00;99.90;;;;;;5073326;28;20116;-60
2022/05/28 00:40:48;;;;;;;4.82;1.42;;;10.60;99.90;;;;;;5069962;28;20103;-60
2022/05/28 00:43:14;;;;;;;3.05;1.30;;;10.40;99.90;;;;;;5072390;28;20155;-61
2022/05/28 00:45:40;;;;;;;3.28;1.50;;;10.20;99.90;;;;;;5065300;28;20033;-61
2022/05/28 00:48:06;;;;;;;3.42;1.50;;;10.20;99.90;;;;;;5073486;28;20043;-61
2022/05/28 00:50:35;;;;;;;6.07;1.63;;;10.20;99.90;;;;;;5051809;28;20045;-61
2022/05/28 00:53:03;;;;;;;5.95;1.45;;;10.20;99.90;;;;;;5066395;28;20063;-61
2022/05/28 00:55:31;;;;;;;5.25;1.60;;;10.20;99.90;;;;;;5071347;28;20036;-61
2022/05/28 00:57:59;;;;;;;4.18;1.75;;;10.20;99.90;;;;;;5069181;28;20067;-61
2022/05/28 01:00:24;;;;;;;5.50;1.73;;;10.20;99.90;;;;;;5063788;28;20036;-61
2022/05/28 01:03:16;;;;;;;9.60;2.08;;;10.30;99.90;;;;;;5073089;28;20461;-61
2022/05/28 01:05:57;;;;;;;5.07;1.73;;;10.30;99.90;;;;;;5060842;28;20048;-61
2022/05/28 01:08:40;;;;;;;4.38;2.00;;;10.40;99.90;;;;;;5069578;28;20400;-61
2022/05/28 01:11:32;;;;;;;8.13;2.08;;;10.40;99.90;;;;;;5065539;28;20075;-61
2022/05/28 01:14:20;;;;;;;6.00;2.08;;;10.40;99.90;;;;;;5060231;28;20067;-61
2022/05/28 01:16:53;;;;;;;8.10;1.90;;;10.40;99.90;;;;;;5064352;28;20090;-61
2022/05/28 01:19:31;;;;;;;7.93;1.90;;;10.30;99.90;;;;;;5069320;28;20496;-61
2022/05/28 01:22:01;;;;;;;5.40;1.95;;;10.30;99.90;;;;;;5071426;28;20127;-61
2022/05/28 01:24:50;;;;;;;8.68;1.80;;;10.20;99.90;;;;;;5068858;28;20041;-61
2022/05/28 01:27:22;;;;;;;9.32;2.10;;;10.20;99.90;;;;;;5060899;28;20048;-61
2022/05/28 01:29:51;;;;;;;9.18;2.53;;;10.20;99.90;;;;;;5069335;28;21065;-61
2022/05/28 01:32:19;;;;;;;7.20;1.67;;;10.20;99.90;;;;;;5037218;28;20049;-61
2022/05/28 01:34:45;;;;;;;7.88;2.33;;;10.00;99.90;;;;;;5063845;28;20029;-61
2022/05/28 01:37:11;;;;;;;7.80;1.92;;;10.00;99.90;;;;;;5072263;28;20032;-61
2022/05/28 01:39:40;;;;;;;9.35;2.72;;;10.00;99.90;;;;;;5068269;28;20093;-61
2022/05/28 01:42:07;;;;;;;8.50;2.20;;;9.90;99.90;;;;;;5071754;28;20123;-61
2022/05/28 01:44:36;;;;;;;4.78;1.67;;;9.90;99.90;;;;;;5060877;28;20761;-61
2022/05/28 01:47:01;;;;;;;5.00;1.85;;;9.90;99.90;;;;;;5056008;28;20049;-61
2022/05/28 01:49:28;;;;;;;8.70;2.38;;;9.90;99.90;;;;;;5069000;28;20045;-61
2022/05/28 01:51:57;;;;;;;7.43;2.10;;;9.90;99.90;;;;;;5064415;28;20128;-61
2022/05/28 01:54:30;;;;;;;9.02;2.00;;;9.90;99.90;;;;;;5071825;28;20040;-61
2022/05/28 01:56:56;;;;;;;8.77;2.58;;;9.80;99.90;;;;;;5068627;28;20476;-61
2022/05/28 01:59:31;;;;;;;10.18;2.15;;;9.80;99.90;;;;;;5069929;28;20072;-61
2022/05/28 02:01:59;;;;;;;9.23;1.98;;;9.80;99.90;;;;;;5065942;28;20059;-61
2022/05/28 02:04:25;;;;;;;8.48;2.00;;;9.80;99.90;;;;;;5068049;28;20051;-61
2022/05/28 02:06:51;;;;;;;11.80;2.15;;;9.80;99.90;;;;;;5066273;28;20095;-61
2022/05/28 02:09:26;;;;;;;10.32;2.65;;;9.80;99.90;;;;;;5068574;28;20086;-61
2022/05/28 02:12:40;;;;;;;10.82;2.47;;;9.80;99.90;;;;;;5069047;28;20090;-61
2022/05/28 02:15:17;;;;;;;9.68;2.15;;;9.80;99.90;;;;;;5048571;28;20079;-61
2022/05/28 02:18:02;;;;;;;9.50;1.80;;;9.70;99.90;;;;;;5059013;28;20045;-61
2022/05/28 02:20:58;;;;;;;9.70;2.08;;;9.70;99.90;;;;;;5057482;28;20542;-62
2022/05/28 02:23:34;;;;;;;10.95;2.80;;;9.70;99.90;;;;;;5051496;28;20366;-61
2022/05/28 02:26:25;;;;;;;9.93;1.85;;;9.80;99.90;;;;;;5066079;28;20041;-61
2022/05/28 02:28:51;;;;;;;12.98;2.13;;;9.80;99.90;;;;;;5068465;28;20051;-62
2022/05/28 02:31:30;;;;;;;10.05;2.53;;;9.80;99.90;;;;;;5070256;28;20048;-61
2022/05/28 02:33:55;;;;;;;9.88;2.58;;;9.80;99.90;;;;;;5062997;28;20036;-61
2022/05/28 02:36:22;;;;;;;8.63;2.28;;;9.70;99.90;;;;;;5068401;28;20090;-61
2022/05/28 02:38:47;;;;;;;10.93;2.03;;;9.70;99.90;;;;;;5070259;28;20399;-61
2022/05/28 02:41:14;;;;;;;9.23;1.92;;;9.60;99.90;;;;;;5062680;28;20047;-61
2022/05/28 02:43:39;;;;;;;10.98;2.50;;;9.60;99.90;;;;;;5071335;28;20376;-61
2022/05/28 02:46:06;;;;;;;6.55;2.40;;;9.60;99.90;;;;;;5067847;28;20545;-61
2022/05/28 02:48:32;;;;;;;11.60;2.10;;;9.60;99.90;;;;;;5067745;28;20041;-61
2022/05/28 02:51:03;;;;;;;8.32;1.98;;;9.60;99.90;;;;;;5066064;28;20056;-62
2022/05/28 02:53:28;;;;;;;10.63;2.35;;;9.50;99.90;;;;;;5072398;28;20033;-61
2022/05/28 02:55:54;;;;;;;6.70;1.92;;;9.50;99.90;;;;;;5074848;28;20032;-61
2022/05/28 02:58:19;;;;;;;8.05;2.10;;;9.40;99.90;;;;;;5066814;28;20033;-62
2022/05/28 03:00:45;;;;;;;10.80;2.08;;;9.50;99.90;;;;;;5074714;28;20032;-61
2022/05/28 03:03:10;;;;;;;9.75;2.65;;;9.40;99.90;;;;;;5071697;28;20507;-61
2022/05/28 03:05:36;;;;;;;9.82;1.92;;;9.40;99.90;;;;;;5071888;28;20044;-62
2022/05/28 03:08:02;;;;;;;7.40;2.00;;;9.30;99.90;;;;;;5070132;28;20048;-63
2022/05/28 03:10:27;;;;;;;10.23;2.45;;;9.30;99.90;;;;;;5071511;28;20651;-62
2022/05/28 03:12:53;;;;;;;7.88;1.77;;;9.40;99.90;;;;;;5074324;28;20046;-63
2022/05/28 03:15:19;;;;;;;12.02;3.05;;;9.40;99.90;;;;;;5065646;28;20071;-62
2022/05/28 03:17:46;;;;;;;13.23;2.60;;;9.30;99.90;;;;;;5074383;28;20066;-62
2022/05/28 03:20:12;;;;;;;9.20;3.45;;;9.30;99.90;;;;;;5071505;28;20032;-62
2022/05/28 03:22:37;;;;;;;8.48;1.98;;;9.30;99.90;;;;;;5070970;28;20029;-62
2022/05/28 03:25:03;;;;;;;10.40;2.25;;;9.20;99.90;;;;;;5069562;28;20181;-62
2022/05/28 03:27:29;;;;;;;7.47;2.20;;;9.20;99.90;;;;;;5071313;28;20119;-62
2022/05/28 03:29:54;;;;;;;7.25;2.25;;;9.20;99.90;;;;;;5068011;28;20134;-63
2022/05/28 03:32:20;;;;;;;8.55;2.75;;;9.10;99.90;;;;;;5072177;28;20033;-63
2022/05/28 03:34:46;;;;;;;7.50;2.20;;;9.10;99.90;;;;;;5073224;28;20683;-63
2022/05/28 03:37:11;;;;;;;9.27;2.35;;;9.10;99.90;;;;;;5063953;28;20025;-62
2022/05/28 03:39:37;;;;;;;6.40;2.30;;;9.10;99.90;;;;;;5072875;28;20403;-63
2022/05/28 03:42:03;;;;;;;6.93;1.98;;;9.10;99.90;;;;;;5063310;28;20115;-62
2022/05/28 03:44:28;;;;;;;11.23;2.20;;;9.20;99.90;;;;;;5064360;28;20119;-62
2022/05/28 03:46:54;;;;;;;10.30;2.35;;;9.10;99.90;;;;;;5066472;28;20122;-62
2022/05/28 03:49:19;;;;;;;10.40;2.25;;;9.10;99.90;;;;;;5065151;28;20128;-62
2022/05/28 03:51:45;;;;;;;9.27;2.47;;;9.20;99.90;;;;;;5074372;28;20094;-62
2022/05/28 03:54:10;;;;;;;10.95;2.33;;;9.20;99.90;;;;;;5070577;28;20496;-62
2022/05/28 03:56:38;;;;;;;11.70;2.70;;;9.20;99.90;;;;;;5073222;28;20039;-62
2022/05/28 03:59:04;;;;;;;11.73;2.30;;;9.20;99.90;;;;;;5064076;28;20040;-62
2022/05/28 04:01:30;;;;;;;14.35;2.65;;;9.30;99.90;;;;;;5070621;28;20071;-61
2022/05/28 04:03:55;;;;;;;12.15;2.45;;;9.30;99.90;;;;;;5070456;28;20076;-62
2022/05/28 04:06:22;;;;;;;9.35;2.13;;;9.20;99.90;;;;;;5063115;28;20561;-61
2022/05/28 04:08:47;;;;;;;12.93;3.08;;;9.30;99.90;;;;;;5058940;28;20033;-61
2022/05/28 04:11:14;;;;;;;10.23;2.47;;;9.30;99.90;;;;;;5069464;28;20681;-61
2022/05/28 04:13:39;;;;;;;12.70;2.58;;;9.30;99.90;;;;;;5056057;28;20040;-61
2022/05/28 04:16:05;;;;;;;12.43;2.60;;;9.30;99.90;;;;;;5071729;28;20039;-62
2022/05/28 04:18:30;;;;;;;10.13;2.72;;;9.30;99.90;;;;;;5071563;28;20044;-61
2022/05/28 04:20:56;;;;;;;10.25;2.20;;;9.30;99.90;;;;;;5065064;28;20029;-62
2022/05/28 04:23:22;;;;;;;17.35;2.72;;;9.30;99.90;;;;;;5073554;28;20563;-62
2022/05/28 04:25:48;;;;;;;15.07;2.75;;;9.40;99.90;;;;;;5069747;28;20037;-62
2022/05/28 04:28:13;;;;;;;10.82;3.08;;;9.50;99.90;;;;;;5072881;28;20041;-62
2022/05/28 04:30:39;;;;;;;8.48;2.28;;;9.50;99.90;;;;;;5064593;28;20436;-62
2022/05/28 04:33:04;;;;;;;12.40;2.90;;;9.60;99.90;;;;;;5068114;28;20032;-62
2022/05/28 04:35:30;;;;;;;13.20;2.90;;;9.60;99.90;;;;;;5072604;28;20039;-63
2022/05/28 04:37:55;;;;;;;12.55;2.90;;;9.60;99.90;;;;;;5064424;28;20033;-62
2022/05/28 04:40:22;;;;;;;7.72;2.30;;;9.70;99.90;;;;;;5068010;28;20090;-62
2022/05/28 04:42:47;;;;;;;12.25;2.88;;;9.80;99.90;;;;;;5067730;28;20043;-63
2022/05/28 04:45:13;;;;;;;13.15;2.65;;;9.80;99.90;;;;;;5069030;28;20037;-62
2022/05/28 04:47:38;;;;;;;11.07;2.35;;;9.80;99.90;;;;;;5070101;28;20044;-63
2022/05/28 04:50:05;;;;;;;9.68;2.60;;;9.80;99.90;;;;;;5051210;28;20129;-63
2022/05/28 04:52:31;;;;;;;11.45;2.90;;;9.80;99.90;;;;;;5072344;28;20051;-62
2022/05/28 04:54:56;;;;;;;14.15;2.65;;;9.70;99.90;;;;;;5060866;28;20040;-62
2022/05/28 04:57:22;;;;;;;13.98;2.92;;;9.80;99.90;;;;;;5072780;28;20515;-62
2022/05/28 04:59:49;;;;;;;16.70;2.40;;;9.80;99.90;;;;;;5066311;28;20163;-62
2022/05/28 05:02:15;;;;;;;15.07;3.10;;;9.90;99.90;;;;;;5068413;28;20048;-62
2022/05/28 05:04:41;;;;;;;14.27;2.75;;;9.90;99.90;;;;;;5068579;28;20106;-62
2022/05/28 05:07:07;;;;;;;13.70;3.22;;;10.00;99.90;;;;;;5064775;28;20040;-62
2022/05/28 05:09:33;;;;;;;9.38;2.40;;;10.10;99.90;;;;;;5069268;28;20047;-62
2022/05/28 05:11:58;;;;;;;9.35;3.20;;;10.20;99.90;;;;;;5066099;28;20072;-62
2022/05/28 05:14:24;;;;;;;14.27;2.60;;;10.20;99.90;;;;;;5069503;28;20040;-62
2022/05/28 05:16:49;;;;;;;13.05;2.90;;;10.30;99.90;;;;;;5071696;28;20036;-62
2022/05/28 05:19:15;;;;;;;11.38;3.15;;;10.30;99.90;;;;;;5062294;28;20041;-62
2022/05/28 05:21:41;;;;;;;8.18;2.70;;;10.30;99.90;;;;;;5069046;28;20055;-62
2022/05/28 05:24:06;;;;;;;14.55;3.13;;;10.30;99.90;;;;;;5063358;28;20496;-62
2022/05/28 05:26:32;;;;;;;13.18;2.97;;;10.40;99.90;;;;;;5065326;28;20123;-62
2022/05/28 05:28:58;;;;;;;12.85;2.38;;;10.50;99.90;;;;;;5043334;28;20050;-62
2022/05/28 05:31:23;;;;;;;13.38;2.75;;;10.50;99.90;;;;;;5059959;28;20049;-62
2022/05/28 05:33:49;;;;;;;13.65;2.97;;;10.60;99.90;;;;;;5068984;28;20044;-62
2022/05/28 05:36:15;;;;;;;12.55;2.50;;;10.70;99.90;;;;;;5067612;28;20529;-62
2022/05/28 05:38:41;;;;;;;13.70;2.70;;;10.80;99.90;;;;;;5066751;28;20042;-62
2022/05/28 05:41:07;;;;;;;14.07;2.95;;;10.80;99.90;;;;;;5064972;28;20033;-62
2022/05/28 05:43:32;;;;;;;14.95;2.97;;;10.90;99.90;;;;;;5065401;28;20121;-62
2022/05/28 05:46:00;;;;;;;9.25;3.15;;;11.00;99.90;;;;;;5062477;28;20120;-62
2022/05/28 05:48:26;;;;;;;11.40;2.80;;;11.00;99.90;;;;;;5050029;28;20040;-62
2022/05/28 05:50:52;;;;;;;12.98;3.00;;;11.10;99.90;;;;;;5064608;28;20043;-62
2022/05/28 05:53:19;;;;;;;16.42;3.38;;;11.20;99.90;;;;;;5059798;28;20041;-62
2022/05/28 05:55:45;;;;;;;13.50;3.13;;;11.30;99.90;;;;;;5068142;28;20044;-62
2022/05/28 05:58:11;;;;;;;17.67;2.78;;;11.40;99.90;;;;;;5065005;28;20036;-62
2022/05/28 06:00:37;;;;;;;13.18;3.05;;;11.40;99.90;;;;;;5059572;28;20045;-62
2022/05/28 06:03:03;;;;;;;12.88;2.70;;;11.50;99.90;;;;;;5068693;28;20041;-62
2022/05/28 06:05:29;;;;;;;14.50;2.60;;;11.50;99.90;;;;;;5068035;28;20052;-63
2022/05/28 06:07:54;;;;;;;12.30;2.47;;;11.50;99.90;;;;;;5064041;28;20049;-63
2022/05/28 06:10:20;;;;;;;16.63;3.13;;;11.60;99.90;;;;;;5058777;28;20409;-62
2022/05/28 06:12:45;;;;;;;15.23;3.35;;;11.60;99.90;;;;;;5062251;28;20059;-63
2022/05/28 06:15:12;;;;;;;14.23;2.67;;;11.60;99.90;;;;;;5066571;28;20039;-62
2022/05/28 06:17:38;;;;;;;12.48;2.67;;;11.60;99.90;;;;;;5058687;28;20479;-62
2022/05/28 06:20:07;;;;;;;15.32;3.13;;;11.60;99.90;;;;;;5067886;28;20037;-63
2022/05/28 06:22:33;;;;;;;16.73;3.20;;;11.70;99.90;;;;;;5063799;28;20040;-63
2022/05/28 06:24:58;;;;;;;15.90;3.28;;;11.80;99.90;;;;;;5060753;28;20037;-62
2022/05/28 06:27:24;;;;;;;10.43;2.90;;;11.90;99.90;;;;;;5065269;28;20044;-62
2022/05/28 06:29:50;;;;;;;17.92;3.70;;;11.90;99.90;;;;;;5065014;28;20048;-62
2022/05/28 06:32:16;;;;;;;13.82;2.88;;;11.80;99.90;;;;;;5066719;28;20055;-63
2022/05/28 06:34:42;;;;;;;15.25;2.83;;;11.90;99.90;;;;;;5059085;28;20043;-63
2022/05/28 06:37:08;;;;;;;14.15;3.05;;;12.10;99.90;;;;;;5070037;28;20033;-62
2022/05/28 06:39:35;;;;;;;7.45;2.70;;;12.10;99.90;;;;;;5066917;28;20045;-62
2022/05/28 06:42:00;;;;;;;9.88;2.00;;;12.20;99.90;;;;;;5066626;28;20052;-63
2022/05/28 06:44:26;;;;;;;7.65;2.28;;;12.30;99.90;;;;;;5066767;28;20033;-62
2022/05/28 06:46:52;;;;;;;10.60;2.80;;;12.30;99.90;;;;;;5067762;28;20036;-62
2022/05/28 06:49:18;;;;;;;9.15;2.22;;;12.30;99.90;;;;;;5069617;28;20045;-63
2022/05/28 06:51:44;;;;;;;7.28;2.20;;;12.30;99.90;;;;;;5063313;28;20389;-62
2022/05/28 06:54:09;;;;;;;8.10;2.55;;;12.30;99.90;;;;;;5070576;28;20029;-62
2022/05/28 06:56:35;;;;;;;8.23;2.58;;;12.40;99.90;;;;;;5050490;28;20040;-62
2022/05/28 06:59:00;;;;;;;8.88;2.33;;;12.40;99.90;;;;;;5070260;28;20484;-62
2022/05/28 07:01:26;;;;;;;10.82;2.53;;;12.40;99.90;;;;;;5062507;28;20045;-62
2022/05/28 07:03:52;;;;;;;9.90;2.33;;;12.20;99.90;;;;;;5067265;28;20124;-62
2022/05/28 07:06:17;;;;;;;9.70;2.67;;;12.20;99.90;;;;;;5069584;28;20037;-62
2022/05/28 07:08:43;;;;;;;7.95;2.60;;;12.30;99.90;;;;;;5062768;28;20094;-62
2022/05/28 07:11:10;;;;;;;11.75;2.53;;;12.30;99.90;;;;;;5068348;28;20041;-62
2022/05/28 07:13:36;;;;;;;6.72;1.67;;;12.20;99.90;;;;;;5070297;28;20032;-62
2022/05/28 07:16:05;;;;;;;11.45;2.65;;;12.30;99.90;;;;;;5062478;28;20492;-62
2022/05/28 07:18:35;;;;;;;11.27;2.85;;;12.40;99.90;;;;;;5070863;28;20036;-63
2022/05/28 07:21:01;;;;;;;11.10;3.17;;;12.70;99.90;;;;;;5067290;28;20120;-63
2022/05/28 07:23:28;;;;;;;9.73;2.42;;;12.80;99.90;;;;;;5068030;28;20048;-62
2022/05/28 07:26:02;;;;;;;18.85;3.30;;;12.80;99.90;;;;;;5064473;28;20489;-62
2022/05/28 07:28:30;;;;;;;15.63;3.20;;;12.80;99.90;;;;;;5058847;28;20045;-62
2022/05/28 07:31:18;;;;;;;13.73;3.08;;;12.70;99.90;;;;;;5065472;28;20062;-62
2022/05/28 07:33:45;;;;;;;10.70;2.65;;;12.70;99.90;;;;;;5058330;28;20546;-62
2022/05/28 07:36:13;;;;;;;10.32;3.00;;;12.60;99.90;;;;;;5049523;28;20118;-62
2022/05/28 07:38:41;;;;;;;12.38;3.60;;;12.40;99.90;;;;;;5072061;28;20090;-61
2022/05/28 07:41:13;;;;;;;12.25;3.17;;;12.20;99.90;;;;;;5065807;28;20076;-61
2022/05/28 07:43:39;;;;;;;;;;;12.00;99.90;;;;;;5072552;28;20032;-61
2022/05/28 07:46:17;;;;;;;12.35;2.60;;;11.70;99.90;;;;;;5072681;28;19924;-61
2022/05/28 07:48:43;;;;;;;7.10;2.55;;;11.60;99.90;;;;;;5069525;28;20044;-61
2022/05/28 07:51:09;;;;;;;10.73;2.70;;;11.40;99.90;;;;;;5054140;28;20049;-61
2022/05/28 07:53:35;;;;;;;8.60;2.60;;;11.40;99.90;;;;;;5058949;28;20041;-61
2022/05/28 07:56:02;;;;;;;7.55;3.15;;;11.40;99.90;;;;;;5073083;28;20408;-61
2022/05/28 07:58:28;;;;;;;7.35;2.70;;;11.30;99.90;;;;;;5065380;28;20033;-61
2022/05/28 08:00:54;;;;;;;6.65;2.63;;;11.20;99.90;;;;;;5070829;28;20058;-61
2022/05/28 08:03:19;;;;;;;11.95;2.90;;;11.10;99.90;;;;;;5072851;28;20083;-61
2022/05/28 08:05:48;;;;;;;9.18;2.38;;;11.10;99.90;;;;;;5065667;28;20455;-61
2022/05/28 08:08:14;;;;;;;5.35;1.50;;;11.10;99.90;;;;;;5073862;28;20036;-62
2022/05/28 08:10:40;;;;;;;7.25;2.20;;;11.10;99.90;;;;;;5067467;28;20036;-61
2022/05/28 08:13:09;;;;;;;8.65;2.47;;;11.10;99.90;;;;;;5070178;28;20047;-63
2022/05/28 08:15:37;;;;;;;7.85;2.45;;;11.30;99.90;;;;;;5063153;28;20036;-64
2022/05/28 08:18:03;;;;;;;12.30;3.30;;;11.50;99.90;;;;;;5064579;28;20068;-64
2022/05/28 08:23:13;;;;;;;9.70;2.33;;;11.80;99.90;;;;;;5066860;28;20044;-63
2022/05/28 08:25:39;;;;;;;14.00;3.72;;;12.00;99.90;;;;;;5064384;28;20033;-63
2022/05/28 08:28:10;;;;;;;8.57;2.70;;;12.20;99.90;;;;;;5058723;28;20052;-63
2022/05/28 08:30:38;;;;;;;9.27;2.95;;;12.30;99.90;;;;;;5072042;28;20036;-63
2022/05/28 08:33:04;;;;;;;9.90;2.95;;;12.40;99.90;;;;;;5064543;28;20404;-63
2022/05/28 08:35:30;;;;;;;12.27;3.22;;;12.40;99.90;;;;;;5071915;28;20037;-63
2022/05/28 08:37:55;;;;;;;13.70;3.60;;;12.60;99.90;;;;;;5069529;28;20070;-63
2022/05/28 08:40:23;;;;;;;16.08;3.72;;;12.70;99.90;;;;;;5070806;28;20047;-63
2022/05/28 08:42:49;;;;;;;13.30;3.22;;;13.10;99.90;;;;;;5063452;28;20048;-65
2022/05/28 08:45:16;;;;;;;12.43;3.20;;;13.40;99.90;;;;;;5067508;28;20047;-62
2022/05/28 08:47:46;;;;;;;13.90;3.30;;;13.60;99.90;;;;;;5068193;28;20037;-63
2022/05/28 08:50:12;;;;;;;12.07;3.45;;;13.70;99.90;;;;;;5047749;28;20090;-63
2022/05/28 08:52:48;;;;;;;10.82;3.38;;;13.60;99.90;;;;;;5072158;28;20041;-63
2022/05/28 08:55:19;;;;;;;13.98;3.38;;;13.40;99.90;;;;;;5064234;28;20066;-63
2022/05/28 08:57:54;;;;;;;15.30;3.83;;;13.20;99.90;;;;;;5073442;28;20036;-63
2022/05/28 09:00:44;;;;;;;14.35;3.30;;;13.20;99.90;;;;;;5065846;28;20453;-63
2022/05/28 09:03:18;;;;;;;15.27;3.38;;;13.30;99.90;;;;;;5066003;28;20505;-63
2022/05/28 09:06:02;;;;;;;17.52;3.15;;;13.40;99.90;;;;;;5122789;22;20044;-63
2022/05/28 09:08:39;;;;;;;13.60;2.90;;;13.60;99.90;;;;;;5066621;28;20518;-62
2022/05/28 09:11:17;;;;;;;13.05;2.85;;;13.70;99.90;;;;;;5076533;28;20041;-62
2022/05/28 09:13:49;;;;;;;12.18;2.50;;;13.90;99.90;;;;;;5072316;28;20435;-62
2022/05/28 09:16:28;;;;;;;15.55;2.75;;;13.90;99.90;;;;;;5070665;28;20557;-62
2022/05/28 09:18:57;;;;;;;10.32;2.63;;;14.10;99.90;;;;;;5077106;28;20040;-62
2022/05/28 09:21:23;;;;;;;9.43;2.85;;;14.20;99.90;;;;;;5084680;28;20032;-62
2022/05/28 09:24:09;;;;;;;8.18;2.40;;;14.00;99.90;;;;;;5085686;28;20043;-62
2022/05/28 09:26:56;;;;;;;7.80;2.35;;;13.90;99.90;;;;;;5089654;28;20044;-62
2022/05/28 09:29:27;;;;;;;11.35;2.83;;;13.80;99.90;;;;;;5084506;28;20040;-63
2022/05/28 09:32:14;;;;;;;12.15;2.63;;;13.70;99.90;;;;;;5084834;28;20493;-62
2022/05/28 09:34:54;;;;;;;11.43;3.08;;;13.90;99.90;;;;;;5076619;28;20121;-62
2022/05/28 09:37:31;;;;;;;10.10;2.63;;;14.30;99.90;;;;;;5081015;28;20134;-63
2022/05/28 09:40:15;;;;;;;16.20;2.78;;;14.80;99.90;;;;;;5074461;28;20442;-63
2022/05/28 09:43:02;;;;;;;12.38;2.80;;;14.70;99.90;;;;;;5080984;28;20035;-63
2022/05/28 09:45:49;;;;;;;15.20;3.28;;;14.50;99.90;;;;;;5078485;28;20397;-63
2022/05/28 09:48:23;;;;;;;16.00;2.92;;;14.20;99.90;;;;;;5084846;28;20047;-63
2022/05/28 09:50:49;;;;;;;12.98;3.08;;;14.00;99.90;;;;;;5071920;28;20047;-63
2022/05/28 09:56:36;;;;;;;17.75;3.80;;;13.80;99.90;;;;;;5089801;28;20484;-63
2022/05/28 09:59:18;;;;;;;12.43;3.38;;;13.90;99.90;;;;;;5080765;28;20118;-65
2022/05/28 10:01:51;;;;;;;;;;;14.20;99.90;;;;;;5072618;28;20043;-63
2022/05/28 10:04:28;;;;;;;14.27;2.95;;;14.60;99.90;;;;;;5082060;28;19923;-63
2022/05/28 10:06:57;;;;;;;7.80;2.33;;;14.80;99.90;;;;;;5053754;28;20121;-63
2022/05/28 10:09:30;;;;;;;5.22;1.98;;;15.00;99.90;;;;;;5072180;28;20123;-63
2022/05/28 10:12:14;;;;;;;7.95;2.58;;;15.00;99.90;;;;;;5071233;28;20523;-64
2022/05/28 10:14:40;;;;;;;11.20;2.55;;;15.20;99.90;;;;;;5069693;28;20064;-63
2022/05/28 10:17:06;;;;;;;9.07;2.40;;;15.10;99.90;;;;;;5076720;28;20079;-64
2022/05/28 10:19:38;;;;;;;11.73;2.40;;;15.00;99.70;;;;;;5081456;28;20041;-64
2022/05/28 10:22:11;;;;;;;8.55;2.50;;;15.20;99.90;;;;;;5091920;28;20063;-63
2022/05/28 10:24:44;;;;;;;12.48;2.55;;;15.10;99.90;;;;;;5058286;28;20115;-64
2022/05/28 10:27:31;;;;;;;10.68;2.25;;;15.00;99.90;;;;;;5079982;28;20040;-64
2022/05/28 10:29:59;;;;;;;13.73;3.25;;;14.90;98.30;;;;;;5071117;28;20040;-63
2022/05/28 10:32:38;;;;;;;7.35;2.10;;;14.60;99.90;;;;;;5071042;28;20036;-63
2022/05/28 10:35:12;;;;;;;10.80;2.25;;;14.30;99.90;;;;;;5058504;28;20442;-63
2022/05/28 10:37:39;;;;;;;7.50;2.40;;;13.90;99.90;;;;;;5082448;28;20035;-64
2022/05/28 10:40:31;;;;;;;10.02;2.15;;;13.80;99.90;;;;;;5083270;28;20082;-63
2022/05/28 10:43:01;;;;;;;16.98;2.72;;;13.70;99.90;;;;;;5073888;28;20097;-63
2022/05/28 10:45:35;;;;;;;9.98;2.88;;;13.80;99.90;;;;;;5079157;28;20113;-64
2022/05/28 10:48:21;;;;;;;8.13;2.65;;;14.00;99.90;;;;;;5072688;28;20044;-64
2022/05/28 10:50:55;;;;;;;10.48;2.67;;;14.20;99.90;;;;;;5079310;28;20075;-64
2022/05/28 10:53:28;;;;;;;11.40;2.80;;;14.70;99.90;;;;;;5073506;28;20079;-64
2022/05/28 10:56:07;;;;;;;16.60;3.00;;;15.30;99.90;;;;;;5081477;28;20083;-63
2022/05/28 10:58:46;;;;;;;12.20;2.65;;;15.70;99.00;;;;;;5081353;28;20102;-64
2022/05/28 11:01:36;;;;;;;7.13;2.42;;;15.70;99.90;;;;;;5082502;28;20047;-64
2022/05/28 11:04:18;;;;;;;14.63;2.70;;;15.80;99.90;;;;;;5091079;28;20050;-64
2022/05/28 11:07:01;;;;;;;12.55;2.95;;;15.60;99.90;;;;;;5086634;28;20032;-64
2022/05/28 11:09:55;;;;;;;16.38;2.85;;;15.30;99.90;;;;;;5088494;28;20513;-68
2022/05/28 11:12:58;;;;;;;7.63;2.17;;;15.20;99.80;;;;;;5053465;28;20048;-64
2022/05/28 11:15:57;;;;;;;5.38;2.13;;;14.70;99.90;;;;;;5093908;28;20150;-64
2022/05/28 11:18:57;;;;;;;10.30;2.70;;;14.30;99.90;;;;;;5058933;28;20090;-64
2022/05/28 11:21:59;;;;;;;11.75;2.50;;;14.30;99.90;;;;;;5073891;28;20120;-64
2022/05/28 11:24:31;;;;;;;5.93;2.42;;;14.40;99.90;;;;;;5087198;28;20044;-64
2022/05/28 11:27:02;;;;;;;13.02;2.55;;;14.30;99.90;;;;;;5065714;28;20044;-64
2022/05/28 11:29:46;;;;;;;12.52;2.17;;;14.10;99.90;;;;;;5083572;28;20551;-65
2022/05/28 11:32:19;;;;;;;4.07;1.63;;;14.30;99.90;;;;;;5078168;28;20044;-64
2022/05/28 11:34:59;;;;;;;8.50;2.60;;;14.40;99.90;;;;;;5076334;28;20425;-64
2022/05/28 11:37:37;;;;;;;8.35;2.83;;;14.60;99.90;;;;;;5087241;28;20043;-64
2022/05/28 11:40:10;;;;;;;12.77;2.65;;;14.90;99.90;;;;;;5056269;28;20092;-64
2022/05/28 11:43:28;;;;;;;10.23;2.80;;;15.00;99.90;;;;;;5074591;28;20044;-64
2022/05/28 11:46:17;;;;;;;11.77;2.90;;;15.00;99.90;;;;;;5053261;28;20064;-64
2022/05/28 11:52:21;;;;;;;13.10;2.70;;;14.60;99.90;;;;;;5054193;28;20079;-64
2022/05/28 11:55:27;;;;;;;11.77;2.70;;;13.90;99.90;;;;;;5079113;28;20048;-64
2022/05/28 11:57:54;;;;;;;8.73;2.58;;;13.80;99.90;;;;;;5011518;28;20042;-64
2022/05/28 12:00:21;;;;;;;11.32;2.70;;;13.80;99.90;;;;;;5011148;28;20193;-64
2022/05/28 12:02:52;;;;;;;9.25;2.15;;;14.00;99.90;;;;;;5041933;28;20051;-64
2022/05/28 12:05:23;;;;;;;10.40;2.70;;;14.10;99.90;;;;;;5079135;28;20040;-64
2022/05/28 12:07:59;;;;;;;9.40;2.15;;;14.30;99.90;;;;;;5085605;28;20024;-64
2022/05/28 12:10:36;;;;;;;8.55;3.22;;;14.50;99.90;;;;;;5093380;28;20055;-64
2022/05/28 12:13:03;;;;;;;8.32;2.60;;;15.10;99.90;;;;;;5078907;28;20045;-64
2022/05/28 12:15:32;;;;;;;12.13;2.35;;;15.30;99.90;;;;;;5092675;28;20484;-64
2022/05/28 12:18:11;;;;;;;10.75;2.83;;;15.20;99.90;;;;;;5074148;28;20064;-64
2022/05/28 12:20:58;;;;;;;8.98;2.58;;;15.10;99.90;;;;;;5079332;28;20039;-64
2022/05/28 12:23:33;;;;;;;7.60;2.35;;;15.10;99.90;;;;;;5055504;28;20060;-64
2022/05/28 12:26:02;;;;;;;8.73;2.20;;;15.50;98.30;;;;;;5077526;28;20043;-64
2022/05/28 12:28:43;;;;;;;7.07;2.22;;;15.50;99.90;;;;;;5072085;28;20028;-64
2022/05/28 12:31:20;;;;;;;12.25;2.80;;;15.60;99.70;;;;;;5088122;28;20170;-64
2022/05/28 12:33:55;;;;;;;11.13;2.55;;;16.00;99.90;;;;;;5084155;28;20044;-64
2022/05/28 12:36:45;;;;;;;7.97;2.53;;;15.90;99.90;;;;;;5089066;28;20107;-64
2022/05/28 12:39:13;;;;;;;10.85;3.17;;;15.60;99.90;;;;;;5087748;28;20122;-64
2022/05/28 12:41:40;;;;;;;9.95;2.35;;;15.30;99.90;;;;;;5084899;28;20115;-64
2022/05/28 12:44:21;;;;;;;8.80;2.50;;;15.10;99.90;;;;;;5092718;28;20040;-63
2022/05/28 12:46:50;;;;;;;8.88;3.17;;;14.80;98.90;;;;;;5081125;28;20032;-64
2022/05/28 12:49:28;;;;;;;9.88;2.90;;;14.40;99.90;;;;;;5070671;28;20450;-64
2022/05/28 12:52:21;;;;;;;15.13;3.17;;;14.40;99.90;;;;;;5066286;28;20576;-64
2022/05/28 12:54:59;;;;;;;6.65;2.25;;;14.30;99.90;;;;;;5080110;28;20032;-63
2022/05/28 12:57:34;;;;;;;11.00;2.80;;;14.40;99.90;;;;;;5079758;28;20078;-64
2022/05/28 13:00:14;;;;;;;14.63;2.95;;;14.60;99.90;;;;;;5091897;28;20518;-63
2022/05/28 13:02:42;;;;;;;7.78;2.25;;;14.80;99.90;;;;;;5072942;28;20042;-63
2022/05/28 13:05:38;;;;;;;13.32;2.40;;;14.90;99.40;;;;;;5077103;28;20040;-64
2022/05/28 13:08:10;;;;;;;11.07;2.50;;;15.10;99.90;;;;;;5071508;28;20073;-64
2022/05/28 13:10:37;;;;;;;11.30;2.65;;;15.30;99.30;;;;;;5081817;28;20054;-64
2022/05/28 13:13:08;;;;;;;8.57;2.65;;;15.50;99.90;;;;;;5073461;28;20510;-64
2022/05/28 13:15:46;;;;;;;;;;;15.60;99.00;;;;;;5084423;28;20763;-64